Accokeek, Maryland
Current Conditions -  °F | °C
As of 2:58 PM on Thursday 27 Nov 2014 (Local Time) from KDAA Reporting Station
Scattered Clouds Scattered Clouds  
Wind Chill: 40°   Ceiling: Unl
Heat Index: 46°   Visibility: 10mi
Dew Point: 27°   Wind: 13mph
Humidity: 47%   Direction: 300°WNW
Pressure: 30.05"   Gusts: 18mph
Location:  38.67°N, 77.03°W
Report Text: KDAA 271958Z AUTO 30011G16KT 10SM SCT060 08/M03 A3005 RMK AO2 SLP180 T00781029
Loading
Personal Weather Stations






























Interactive Weather Map New forecast layout! Learn more

10-Day Weather Forecast

Advertisements
Track Severe Weather on mobile